Overview Statistics Trail Chart Weather Telemetry Raw packets
 

This is the latest recevied weather packets stored in our database for station/object IZ7EXI-13. If no packets are shown the sender has not sent any weather packets the latest 10 day(s).

<< 41 42 43 44 45 46 47 >>
Time Temp. Humidity Pressure Rain* Wind** Luminosity Snow
1787897953 31.11° C 50% 1019 hPa - - - -
1787897053 30.56° C 52% 1019 hPa - - - -
1787896152 30° C 52% 1019 hPa - - - -
1787895252 29.44° C 52% 1018.8 hPa - - - -
1787894384 28.89° C 52% 1018.7 hPa - - - -
1787894352 28.89° C 52% 1018.7 hPa - - - -
1787893452 28.89° C 52% 1018.5 hPa - - - -
1787892585 28.33° C 53% 1018.5 hPa - - - -
1787892551 28.33° C 53% 1018.5 hPa - - - -
1787891651 28.33° C 54% 1018.4 hPa - - - -
1787890804 28.33° C 54% 1018.3 hPa - - - -
1787890751 28.33° C 54% 1018.3 hPa - - - -
1787889851 28.33° C 53% 1018.2 hPa - - - -
1787888982 28.33° C 53% 1017.9 hPa - - - -
1787888951 28.33° C 53% 1017.9 hPa - - - -
1787888050 28.89° C 52% 1018.3 hPa - - - -
1787887150 28.89° C 50% 1018.3 hPa - - - -
1787886250 28.33° C 53% 1018.4 hPa - - - -
1787885382 28.33° C 54% 1018.6 hPa - - - -
1787885350 28.33° C 54% 1018.6 hPa - - - -
1787884449 28.33° C 54% 1018.5 hPa - - - -
1787883549 27.78° C 55% 1018.6 hPa - - - -
1787882649 28.33° C 53% 1018.6 hPa - - - -
1787881749 28.33° C 53% 1018.7 hPa - - - -
1787880848 28.33° C 53% 1018.9 hPa - - - -

* Rain since midnight (hover to see other rain measurements)
** Current wind speed in m/s (hover to see current wind gust speed)